createdAt,value
2023-02-07T00:02:20.240Z,77.91
2023-02-07T00:04:48.079Z,77.71
2023-02-07T00:07:17.079Z,78.16
2023-02-07T00:09:44.812Z,78.37
2023-02-07T00:12:12.405Z,77.51
2023-02-07T00:14:39.982Z,78.52
2023-02-07T00:17:07.637Z,78.71
2023-02-07T00:19:35.835Z,79.60
2023-02-07T00:22:03.511Z,79.34
2023-02-07T00:24:32.449Z,79.10
2023-02-07T00:27:00.092Z,79.92
2023-02-07T00:29:28.260Z,79.74
2023-02-07T00:31:55.863Z,79.31
2023-02-07T00:34:23.452Z,78.89
2023-02-07T00:36:51.019Z,79.16
2023-02-07T00:39:18.957Z,78.72
2023-02-07T00:41:48.025Z,78.58
2023-02-07T00:44:15.591Z,78.21
2023-02-07T00:46:43.400Z,78.68
2023-02-07T00:49:11.750Z,79.13
2023-02-07T00:51:39.694Z,79.55
2023-02-07T00:54:07.401Z,78.35
2023-02-07T00:56:35.295Z,78.34
2023-02-07T00:59:04.274Z,77.81
2023-02-07T01:01:32.143Z,78.55
2023-02-07T01:03:59.961Z,78.71
2023-02-07T01:06:29.416Z,78.82
2023-02-07T01:08:58.985Z,79.98
2023-02-07T01:11:27.391Z,81.01
2023-02-07T01:13:54.962Z,81.31
2023-02-07T01:16:26.007Z,80.79
2023-02-07T01:18:54.401Z,80.54
2023-02-07T01:21:24.224Z,80.00
2023-02-07T01:23:52.195Z,79.21
2023-02-07T01:26:19.863Z,79.08
2023-02-07T01:28:47.503Z,78.33
2023-02-07T01:31:15.850Z,79.28
2023-02-07T01:33:45.144Z,78.14
2023-02-07T01:36:15.052Z,78.10
2023-02-07T01:38:43.885Z,78.67
2023-02-07T01:41:13.966Z,78.87
2023-02-07T01:43:59.984Z,79.48
2023-02-07T01:46:28.454Z,79.64
2023-02-07T01:48:59.961Z,79.21
2023-02-07T01:51:29.093Z,79.22
2023-02-07T01:54:00.539Z,79.36
2023-02-07T01:56:31.892Z,78.92
2023-02-07T01:59:00.687Z,79.04
2023-02-07T02:01:28.369Z,78.43
2023-02-07T02:03:57.838Z,78.73
2023-02-07T02:06:29.372Z,78.91
2023-02-07T02:09:00.003Z,78.42
2023-02-07T02:11:49.151Z,79.43
2023-02-07T02:14:29.409Z,79.75
2023-02-07T02:17:07.594Z,80.55
2023-02-07T02:20:03.547Z,80.86
2023-02-07T02:22:59.795Z,80.24
2023-02-07T02:26:03.087Z,81.43
2023-02-07T02:29:05.184Z,80.27
2023-02-07T02:32:04.538Z,80.67
2023-02-07T02:34:40.966Z,79.63
2023-02-07T02:37:16.331Z,79.23
2023-02-07T02:39:51.624Z,78.90
2023-02-07T02:42:24.712Z,80.90
2023-02-07T02:44:58.225Z,80.15
2023-02-07T02:47:28.762Z,80.12
2023-02-07T02:49:58.370Z,80.79
2023-02-07T02:52:44.601Z,81.55
2023-02-07T02:55:15.726Z,81.78
2023-02-07T02:57:56.676Z,81.10
2023-02-07T03:00:39.731Z,81.27
2023-02-07T03:03:31.691Z,81.07
2023-02-07T03:06:10.515Z,80.70
2023-02-07T03:08:45.679Z,79.77
2023-02-07T03:11:16.131Z,79.78
2023-02-07T03:13:58.627Z,80.11
2023-02-07T03:16:32.140Z,79.24
2023-02-07T03:19:05.771Z,78.90
2023-02-07T03:21:39.367Z,79.14
2023-02-07T03:24:11.591Z,79.36
2023-02-07T03:26:41.215Z,79.17
2023-02-07T03:29:10.215Z,79.56
2023-02-07T03:31:41.188Z,78.61
2023-02-07T03:34:15.212Z,79.44
2023-02-07T03:36:52.125Z,79.61
2023-02-07T03:39:19.912Z,79.60
2023-02-07T03:41:54.375Z,79.32
2023-02-07T03:44:25.525Z,78.82
2023-02-07T03:46:55.441Z,78.33
2023-02-07T03:49:23.308Z,79.80
2023-02-07T03:51:52.862Z,79.15
2023-02-07T03:54:20.420Z,79.91
2023-02-07T03:56:47.971Z,80.55
2023-02-07T03:59:15.543Z,79.72
2023-02-07T04:01:43.318Z,79.16
2023-02-07T04:04:12.655Z,79.15
2023-02-07T04:06:40.245Z,78.13
2023-02-07T04:09:11.662Z,79.01
2023-02-07T04:11:39.504Z,77.60
2023-02-07T04:14:07.121Z,79.23
2023-02-07T04:16:34.734Z,79.67
2023-02-07T04:19:02.331Z,78.45
2023-02-07T04:21:29.968Z,76.85
2023-02-07T04:23:57.555Z,75.81
2023-02-07T04:26:26.497Z,76.06
2023-02-07T04:28:54.207Z,75.67
2023-02-07T04:31:21.827Z,74.87
2023-02-07T04:33:50.002Z,75.02
2023-02-07T04:36:17.936Z,74.18
2023-02-07T04:38:45.810Z,74.43
2023-02-07T04:41:13.907Z,74.05
2023-02-07T04:43:42.965Z,74.12
2023-02-07T04:46:13.142Z,74.78
2023-02-07T04:48:40.752Z,75.06
2023-02-07T04:51:08.780Z,74.57
2023-02-07T04:53:36.541Z,73.88
2023-02-07T04:56:04.338Z,73.41
2023-02-07T04:58:31.959Z,73.25
2023-02-07T05:01:01.011Z,76.35
2023-02-07T05:03:28.652Z,77.26
2023-02-07T05:05:56.334Z,81.80
2023-02-07T05:08:26.108Z,80.68
2023-02-07T05:10:54.947Z,78.49
2023-02-07T05:13:23.057Z,78.47
2023-02-07T05:15:51.199Z,78.69
2023-02-07T05:18:20.813Z,79.32
2023-02-07T05:20:50.272Z,78.54
2023-02-07T05:23:18.966Z,78.25
2023-02-07T05:25:48.977Z,77.72
2023-02-07T05:28:17.301Z,76.37
2023-02-07T05:30:45.150Z,75.71
2023-02-07T05:33:11.883Z,75.93
2023-02-07T05:35:42.467Z,75.22
2023-02-07T05:38:11.974Z,75.39
2023-02-07T05:40:41.384Z,74.19
2023-02-07T05:43:10.173Z,74.01
2023-02-07T05:45:38.572Z,73.99
2023-02-07T05:48:07.111Z,73.97
2023-02-07T05:50:34.973Z,74.08
2023-02-07T05:53:04.631Z,72.84
2023-02-07T05:55:32.776Z,73.88
2023-02-07T05:58:00.478Z,73.67
2023-02-07T06:00:28.105Z,73.13
2023-02-07T06:02:55.990Z,72.56
2023-02-07T06:05:24.713Z,73.10
2023-02-07T06:07:52.365Z,71.42
2023-02-07T06:10:21.549Z,72.00
2023-02-07T06:12:49.143Z,72.60
2023-02-07T06:15:16.710Z,72.48
2023-02-07T06:17:44.301Z,71.92
2023-02-07T06:20:12.846Z,71.57
2023-02-07T06:22:40.525Z,71.62
2023-02-07T06:25:11.843Z,71.91
2023-02-07T06:27:42.142Z,73.51
2023-02-07T06:30:12.287Z,72.92
2023-02-07T06:32:40.019Z,73.45
2023-02-07T06:35:08.780Z,73.29
2023-02-07T06:37:36.428Z,73.30
2023-02-07T06:40:04.513Z,72.71
2023-02-07T06:42:32.189Z,73.48
2023-02-07T06:45:01.195Z,72.82
2023-02-07T06:47:28.775Z,71.87
2023-02-07T06:49:56.362Z,71.36
2023-02-07T06:52:23.922Z,71.88
2023-02-07T06:54:51.522Z,73.80
2023-02-07T06:57:19.161Z,73.34
2023-02-07T06:59:46.746Z,73.32
2023-02-07T07:02:17.112Z,73.81
2023-02-07T07:04:44.803Z,72.91
2023-02-07T07:07:12.466Z,73.83
2023-02-07T07:09:40.076Z,73.62
2023-02-07T07:12:08.018Z,73.25
2023-02-07T07:14:35.889Z,72.59
2023-02-07T07:17:03.528Z,73.74
2023-02-07T07:19:32.465Z,75.20
2023-02-07T07:22:00.377Z,73.29
2023-02-07T07:24:28.257Z,73.60
2023-02-07T07:26:56.489Z,73.71
2023-02-07T07:29:24.280Z,74.77
2023-02-07T07:31:52.088Z,74.16
2023-02-07T07:34:20.113Z,75.21
2023-02-07T07:36:49.306Z,73.92
2023-02-07T07:39:17.091Z,74.80
2023-02-07T07:41:44.710Z,74.69
2023-02-07T07:44:12.261Z,75.02
2023-02-07T07:46:40.121Z,76.13
2023-02-07T07:49:07.765Z,75.67
2023-02-07T07:51:35.479Z,76.37
2023-02-07T07:54:04.615Z,75.33
2023-02-07T07:56:32.722Z,74.99
2023-02-07T07:59:05.854Z,74.54
2023-02-07T08:01:36.460Z,75.52
2023-02-07T08:04:04.819Z,74.38
2023-02-07T08:06:33.138Z,76.27
2023-02-07T08:09:00.745Z,74.67
2023-02-07T08:11:29.703Z,75.14
2023-02-07T08:13:57.263Z,76.73
2023-02-07T08:16:25.063Z,75.04
2023-02-07T08:18:52.709Z,75.37
2023-02-07T08:21:20.955Z,75.63
2023-02-07T08:23:48.680Z,75.56
2023-02-07T08:26:16.565Z,76.30
2023-02-07T08:28:45.625Z,76.29
2023-02-07T08:31:13.405Z,74.35
2023-02-07T08:33:41.142Z,75.28
2023-02-07T08:36:11.088Z,74.89
2023-02-07T08:38:38.849Z,75.25
2023-02-07T08:41:06.641Z,75.33
2023-02-07T08:43:34.332Z,74.57
2023-02-07T08:46:03.611Z,74.82
2023-02-07T08:48:31.819Z,73.49
2023-02-07T08:50:59.492Z,75.25
2023-02-07T08:53:27.157Z,73.34
2023-02-07T08:55:55.103Z,74.58
2023-02-07T08:58:22.684Z,73.71
2023-02-07T09:00:50.381Z,73.77
2023-02-07T09:03:19.439Z,73.78
2023-02-07T09:05:47.259Z,72.22
2023-02-07T09:08:14.881Z,71.06
2023-02-07T09:10:42.916Z,70.75
2023-02-07T09:13:10.711Z,71.15
2023-02-07T09:15:38.329Z,71.23
2023-02-07T09:18:06.236Z,68.94
2023-02-07T09:20:35.155Z,71.20
2023-02-07T09:23:21.070Z,70.09
2023-02-07T09:25:50.373Z,69.99
2023-02-07T09:28:18.428Z,70.50
2023-02-07T09:30:47.290Z,68.95
2023-02-07T09:33:16.028Z,69.20
2023-02-07T09:35:46.771Z,70.26
2023-02-07T09:38:16.999Z,68.76
2023-02-07T09:40:45.748Z,68.19
2023-02-07T09:43:22.179Z,67.74
2023-02-07T09:45:55.556Z,67.35
2023-02-07T09:48:30.331Z,67.88
2023-02-07T09:51:03.667Z,66.40
2023-02-07T09:53:41.046Z,65.98
2023-02-07T09:56:10.500Z,65.37
2023-02-07T09:58:43.185Z,64.24
2023-02-07T10:01:14.898Z,64.76
2023-02-07T10:03:50.120Z,64.86
2023-02-07T10:06:27.321Z,65.35
2023-02-07T10:08:57.316Z,63.35
2023-02-07T10:11:36.914Z,62.12
2023-02-07T10:14:23.861Z,59.46
2023-02-07T10:17:06.668Z,59.76
2023-02-07T10:19:47.195Z,58.82
2023-02-07T10:22:27.185Z,56.55
2023-02-07T10:25:30.839Z,55.05
2023-02-07T10:28:10.247Z,52.88
2023-02-07T10:30:41.004Z,50.57
2023-02-07T10:33:15.484Z,52.27
2023-02-07T10:35:45.631Z,51.99
2023-02-07T10:38:24.946Z,49.07
2023-02-07T10:40:57.080Z,50.45
2023-02-07T10:43:29.412Z,48.56
2023-02-07T10:46:06.150Z,49.08
2023-02-07T10:48:35.272Z,49.71
2023-02-07T10:51:04.744Z,47.81
2023-02-07T10:53:54.643Z,50.36
2023-02-07T10:56:27.926Z,44.93
2023-02-07T10:58:57.831Z,44.06
2023-02-07T11:01:27.571Z,44.53
2023-02-07T11:03:56.013Z,45.80
2023-02-07T11:06:28.118Z,43.10
2023-02-07T11:09:21.064Z,44.47
2023-02-07T11:11:50.757Z,42.73
2023-02-07T11:14:26.218Z,43.97
2023-02-07T11:16:55.594Z,43.50
2023-02-07T11:19:25.817Z,42.03
2023-02-07T11:21:56.600Z,40.30
2023-02-07T11:24:30.001Z,45.28
2023-02-07T11:27:03.090Z,42.32
2023-02-07T11:29:32.654Z,42.45
2023-02-07T11:32:03.009Z,39.57
2023-02-07T11:34:41.330Z,42.06
2023-02-07T11:37:17.538Z,39.46
2023-02-07T11:39:47.116Z,38.36
2023-02-07T11:42:19.530Z,38.27
2023-02-07T11:44:48.662Z,38.69
2023-02-07T11:47:18.760Z,39.23
2023-02-07T11:49:50.589Z,37.00
2023-02-07T11:52:18.600Z,38.00
2023-02-07T11:54:54.039Z,38.35
2023-02-07T11:57:23.196Z,37.47
2023-02-07T12:00:02.338Z,39.15
2023-02-07T12:02:31.614Z,39.31
2023-02-07T12:05:15.295Z,37.28
2023-02-07T12:07:47.181Z,37.35
2023-02-07T12:10:22.863Z,36.88
2023-02-07T12:12:55.023Z,37.27
2023-02-07T12:15:29.064Z,40.22
2023-02-07T12:18:01.896Z,41.07
2023-02-07T12:20:33.199Z,40.60
2023-02-07T12:23:34.571Z,40.88
2023-02-07T12:25:59.747Z,40.76
2023-02-07T12:28:32.379Z,40.08
2023-02-07T12:31:06.465Z,39.50
2023-02-07T12:33:41.916Z,40.98
2023-02-07T12:36:15.326Z,39.01
2023-02-07T12:38:49.315Z,38.38
2023-02-07T12:41:24.779Z,39.79
2023-02-07T12:44:03.189Z,39.17
2023-02-07T12:46:40.403Z,37.46
2023-02-07T12:49:28.374Z,39.22
2023-02-07T12:52:10.554Z,38.03
2023-02-07T12:54:49.046Z,37.07
2023-02-07T12:57:25.157Z,37.93
2023-02-07T13:00:04.053Z,40.86
2023-02-07T13:02:39.066Z,39.80
2023-02-07T13:05:39.992Z,37.59
2023-02-07T13:08:17.740Z,37.68
2023-02-07T13:10:57.823Z,37.74
2023-02-07T13:13:32.080Z,37.13
2023-02-07T13:16:07.113Z,36.45
2023-02-07T13:18:42.836Z,39.37
2023-02-07T13:21:21.500Z,37.92
2023-02-07T13:23:50.357Z,38.19
2023-02-07T13:26:20.991Z,37.68
2023-02-07T13:28:53.885Z,37.73
2023-02-07T13:31:26.102Z,36.69
2023-02-07T13:33:54.501Z,40.46
2023-02-07T13:36:33.003Z,38.29
2023-02-07T13:39:11.266Z,38.19
2023-02-07T13:41:50.617Z,38.03
2023-02-07T13:44:23.746Z,39.36
2023-02-07T13:47:02.920Z,38.48
2023-02-07T13:49:42.426Z,39.28
2023-02-07T13:52:15.278Z,36.86
2023-02-07T13:54:50.624Z,36.40
2023-02-07T13:57:41.148Z,38.78
2023-02-07T14:00:18.802Z,36.04
2023-02-07T14:02:50.420Z,36.48
2023-02-07T14:05:23.096Z,38.16
2023-02-07T14:07:58.954Z,37.01
2023-02-07T14:10:42.290Z,35.99
2023-02-07T14:13:22.967Z,36.00
2023-02-07T14:16:01.625Z,37.66
2023-02-07T14:18:42.205Z,39.19
2023-02-07T14:21:35.701Z,40.66
2023-02-07T14:24:17.469Z,41.65
2023-02-07T14:27:26.097Z,39.26
2023-02-07T14:29:56.308Z,38.67
2023-02-07T14:32:31.848Z,40.85
2023-02-07T14:35:03.159Z,39.39
2023-02-07T14:37:51.484Z,41.30
2023-02-07T14:40:22.466Z,41.03
2023-02-07T14:43:00.115Z,40.06
2023-02-07T14:45:30.672Z,41.06
2023-02-07T14:47:59.765Z,42.90
2023-02-07T14:50:30.677Z,43.53
2023-02-07T14:53:00.598Z,44.71
2023-02-07T14:55:34.388Z,45.22
2023-02-07T14:58:06.074Z,45.80
2023-02-07T15:00:38.647Z,45.03
2023-02-07T15:03:15.118Z,45.95
2023-02-07T15:05:51.354Z,46.10
2023-02-07T15:08:22.157Z,47.04
2023-02-07T15:10:55.678Z,46.57
2023-02-07T15:13:29.692Z,47.32
2023-02-07T15:16:01.198Z,47.13
2023-02-07T15:18:35.764Z,50.16
2023-02-07T15:21:03.981Z,48.36
2023-02-07T15:23:32.933Z,48.32
2023-02-07T15:26:05.067Z,49.64
2023-02-07T15:28:33.331Z,48.99
2023-02-07T15:31:03.261Z,48.85
2023-02-07T15:33:36.742Z,49.96
2023-02-07T15:36:06.444Z,49.64
2023-02-07T15:38:34.359Z,51.04
2023-02-07T15:41:04.459Z,50.96
2023-02-07T15:43:34.151Z,51.52
2023-02-07T15:46:08.725Z,51.81
2023-02-07T15:48:49.180Z,52.46
2023-02-07T15:51:19.747Z,52.01
2023-02-07T15:53:51.167Z,52.63
2023-02-07T15:56:19.520Z,53.75
2023-02-07T15:58:47.757Z,53.48
2023-02-07T16:01:18.321Z,53.03
2023-02-07T16:03:48.534Z,53.23
2023-02-07T16:06:20.963Z,53.62
2023-02-07T16:08:51.093Z,53.65
2023-02-07T16:11:34.213Z,53.42
2023-02-07T16:14:04.834Z,52.41
2023-02-07T16:16:36.585Z,52.73
2023-02-07T16:19:17.065Z,53.23
2023-02-07T16:21:46.801Z,52.20
2023-02-07T16:24:17.544Z,52.44
2023-02-07T16:26:45.802Z,53.19
2023-02-07T16:29:17.231Z,53.33
2023-02-07T16:31:45.236Z,53.54
2023-02-07T16:34:16.703Z,54.78
2023-02-07T16:36:44.703Z,55.33
2023-02-07T16:39:12.318Z,55.48
2023-02-07T16:41:44.839Z,56.80
2023-02-07T16:44:16.441Z,57.32
2023-02-07T16:46:44.179Z,58.13
2023-02-07T16:49:15.973Z,59.11
2023-02-07T16:51:44.904Z,60.98
2023-02-07T16:54:12.690Z,60.06
2023-02-07T16:56:41.210Z,61.00
2023-02-07T16:59:12.350Z,61.27
2023-02-07T17:01:39.944Z,61.91
2023-02-07T17:04:08.491Z,62.82
2023-02-07T17:06:37.383Z,63.29
2023-02-07T17:09:05.366Z,64.17
2023-02-07T17:11:32.916Z,63.35
2023-02-07T17:14:00.731Z,63.91
2023-02-07T17:16:28.798Z,64.23
2023-02-07T17:18:56.470Z,65.06
2023-02-07T17:21:24.036Z,64.63
2023-02-07T17:23:52.929Z,64.67
2023-02-07T17:26:24.402Z,63.71
2023-02-07T17:28:52.030Z,63.97
2023-02-07T17:31:19.875Z,64.69
2023-02-07T17:33:47.580Z,65.59
2023-02-07T17:36:16.930Z,66.72
2023-02-07T17:38:45.022Z,67.36
2023-02-07T17:41:15.191Z,67.86
2023-02-07T17:43:43.767Z,68.22
2023-02-07T17:46:16.897Z,69.04
2023-02-07T17:48:46.626Z,68.70
2023-02-07T17:51:14.609Z,68.94
2023-02-07T17:53:42.300Z,69.14
2023-02-07T17:56:17.744Z,69.76
2023-02-07T17:58:46.683Z,69.51
2023-02-07T18:01:15.338Z,68.85
2023-02-07T18:03:42.964Z,69.97
2023-02-07T18:06:13.902Z,68.98
2023-02-07T18:08:41.857Z,68.99
2023-02-07T18:11:11.486Z,69.03
2023-02-07T18:13:39.161Z,67.82
2023-02-07T18:16:11.252Z,68.36
2023-02-07T18:18:39.795Z,68.71
2023-02-07T18:21:07.687Z,68.51
2023-02-07T18:23:35.219Z,68.06
2023-02-07T18:26:04.465Z,67.83
2023-02-07T18:28:32.216Z,67.12
2023-02-07T18:30:59.964Z,67.26
2023-02-07T18:33:29.094Z,65.63
2023-02-07T18:35:58.451Z,65.12
2023-02-07T18:38:26.044Z,64.73
2023-02-07T18:40:53.638Z,65.74
2023-02-07T18:43:21.390Z,64.06
2023-02-07T18:45:49.033Z,63.28
2023-02-07T18:48:16.659Z,63.76
2023-02-07T18:50:45.967Z,65.03
2023-02-07T18:53:14.116Z,66.27
2023-02-07T18:55:42.047Z,65.79
2023-02-07T18:58:09.647Z,69.21
2023-02-07T19:00:37.701Z,67.08
2023-02-07T19:03:05.537Z,67.43
2023-02-07T19:05:33.141Z,67.30
2023-02-07T19:08:02.037Z,66.51
2023-02-07T19:10:29.698Z,67.47
2023-02-07T19:12:57.632Z,67.36
2023-02-07T19:15:25.588Z,67.90
2023-02-07T19:17:53.335Z,68.68
2023-02-07T19:20:21.335Z,68.29
2023-02-07T19:22:52.682Z,67.54
2023-02-07T19:25:21.876Z,67.62
2023-02-07T19:27:49.692Z,66.89
2023-02-07T19:30:17.516Z,66.16
2023-02-07T19:32:45.288Z,66.01
2023-02-07T19:35:13.058Z,66.01
2023-02-07T19:37:40.717Z,65.77
2023-02-07T19:40:09.001Z,67.51
2023-02-07T19:42:38.120Z,69.60
2023-02-07T19:45:06.481Z,70.03
2023-02-07T19:47:34.274Z,70.43
2023-02-07T19:50:02.370Z,70.73
2023-02-07T19:52:30.138Z,71.63
2023-02-07T19:54:57.876Z,72.17
2023-02-07T19:57:25.673Z,72.59
2023-02-07T19:59:55.078Z,72.35
2023-02-07T20:02:22.832Z,73.40
2023-02-07T20:04:54.590Z,73.32
2023-02-07T20:07:22.560Z,74.13
2023-02-07T20:09:50.969Z,74.15
2023-02-07T20:12:18.755Z,74.20
2023-02-07T20:14:46.515Z,75.91
2023-02-07T20:17:15.556Z,76.65
2023-02-07T20:19:43.344Z,76.71
2023-02-07T20:22:11.244Z,76.94
2023-02-07T20:24:39.014Z,77.39
2023-02-07T20:27:06.829Z,77.56
2023-02-07T20:29:34.584Z,78.02
2023-02-07T20:32:02.387Z,78.53
2023-02-07T20:34:31.582Z,78.09
2023-02-07T20:36:59.373Z,78.38
2023-02-07T20:39:29.210Z,78.69
2023-02-07T20:41:56.884Z,79.08
2023-02-07T20:44:26.552Z,79.39
2023-02-07T20:46:55.363Z,79.19
2023-02-07T20:49:27.384Z,79.27
2023-02-07T20:51:58.014Z,79.43
2023-02-07T20:54:28.643Z,79.14
2023-02-07T20:56:56.904Z,79.79
2023-02-07T20:59:26.220Z,80.16
2023-02-07T21:01:54.597Z,80.11
2023-02-07T21:04:22.903Z,80.50
2023-02-07T21:06:50.588Z,80.32
2023-02-07T21:09:19.903Z,80.91
2023-02-07T21:11:49.494Z,80.46
2023-02-07T21:14:19.337Z,80.67
2023-02-07T21:16:47.559Z,81.09
2023-02-07T21:19:15.677Z,81.33
2023-02-07T21:21:43.796Z,81.28
2023-02-07T21:24:11.356Z,81.53
2023-02-07T21:26:40.603Z,81.66
2023-02-07T21:29:08.578Z,81.40
2023-02-07T21:31:36.723Z,81.73
2023-02-07T21:34:04.894Z,82.01
2023-02-07T21:36:37.444Z,81.70
2023-02-07T21:39:08.297Z,81.13
2023-02-07T21:41:37.299Z,81.30
2023-02-07T21:44:06.520Z,81.81
2023-02-07T21:46:35.961Z,81.33
2023-02-07T21:49:06.370Z,81.69
2023-02-07T21:51:36.290Z,81.98
2023-02-07T21:54:07.213Z,82.34
2023-02-07T21:56:37.537Z,82.48
2023-02-07T21:59:09.230Z,82.54
2023-02-07T22:01:37.450Z,82.66
2023-02-07T22:04:06.840Z,82.80
2023-02-07T22:06:34.453Z,81.96
2023-02-07T22:09:05.000Z,82.46
2023-02-07T22:11:34.963Z,82.74
2023-02-07T22:14:03.525Z,82.46
2023-02-07T22:16:34.157Z,82.85
2023-02-07T22:19:03.610Z,83.08
2023-02-07T22:21:33.356Z,83.09
2023-02-07T22:24:01.845Z,82.48
2023-02-07T22:26:30.069Z,83.08
2023-02-07T22:28:58.836Z,83.86
2023-02-07T22:31:28.539Z,83.79
2023-02-07T22:34:00.898Z,84.08
2023-02-07T22:36:30.772Z,83.80
2023-02-07T22:38:59.431Z,83.40
2023-02-07T22:41:27.634Z,84.20
2023-02-07T22:43:55.456Z,83.61
2023-02-07T22:46:25.020Z,84.01
2023-02-07T22:48:53.372Z,83.62
2023-02-07T22:51:25.028Z,82.01
2023-02-07T22:53:55.475Z,80.25
2023-02-07T22:56:23.252Z,79.54
2023-02-07T22:58:51.140Z,79.15
2023-02-07T23:01:24.289Z,80.34
2023-02-07T23:03:52.615Z,81.36
2023-02-07T23:06:22.632Z,81.44
2023-02-07T23:08:50.635Z,81.52
2023-02-07T23:11:20.546Z,82.13
2023-02-07T23:13:48.483Z,82.22
2023-02-07T23:16:18.074Z,82.41
2023-02-07T23:18:46.678Z,82.19
2023-02-07T23:21:18.584Z,82.63
2023-02-07T23:23:47.551Z,81.09
2023-02-07T23:26:17.425Z,80.76
2023-02-07T23:28:45.802Z,80.58
2023-02-07T23:31:15.825Z,80.86
2023-02-07T23:33:43.860Z,81.58
2023-02-07T23:36:11.999Z,80.68
2023-02-07T23:38:40.089Z,81.00
2023-02-07T23:41:09.639Z,81.15
2023-02-07T23:43:38.135Z,82.18
2023-02-07T23:46:06.716Z,81.74
2023-02-07T23:48:38.129Z,82.17
2023-02-07T23:51:11.367Z,82.04
2023-02-07T23:53:39.178Z,82.57
2023-02-07T23:56:07.455Z,83.02
2023-02-07T23:58:36.724Z,82.60
